createdAt,value
2019-06-23T00:01:22.971Z,0.00
2019-06-23T00:02:23.030Z,0.00
2019-06-23T00:04:16.052Z,0.00
2019-06-23T00:05:16.085Z,0.00
2019-06-23T00:07:09.082Z,0.00
2019-06-23T00:08:09.153Z,0.00
2019-06-23T00:10:02.171Z,0.00
2019-06-23T00:11:02.202Z,0.00
2019-06-23T00:12:55.203Z,0.00
2019-06-23T00:13:55.281Z,0.00
2019-06-23T00:15:48.298Z,0.00
2019-06-23T00:16:48.380Z,0.00
2019-06-23T00:18:41.349Z,0.00
2019-06-23T00:19:41.404Z,0.00
2019-06-23T00:21:34.433Z,0.00
2019-06-23T00:22:34.477Z,0.00
2019-06-23T00:24:27.448Z,0.00
2019-06-23T00:25:27.515Z,0.00
2019-06-23T00:27:20.547Z,0.00
2019-06-23T00:28:20.580Z,0.00
2019-06-23T00:30:13.619Z,0.00
2019-06-23T00:31:13.635Z,0.00
2019-06-23T00:33:06.629Z,0.00
2019-06-23T00:34:06.698Z,0.00
2019-06-23T00:35:59.691Z,0.00
2019-06-23T00:36:59.744Z,0.00
2019-06-23T00:38:52.768Z,0.00
2019-06-23T00:39:52.805Z,0.00
2019-06-23T00:41:45.814Z,0.00
2019-06-23T00:42:45.867Z,0.00
2019-06-23T00:44:38.875Z,0.00
2019-06-23T00:45:38.938Z,0.00
2019-06-23T00:47:31.946Z,0.00
2019-06-23T00:48:31.994Z,0.00
2019-06-23T00:50:25.008Z,0.00
2019-06-23T00:51:25.048Z,0.00
2019-06-23T00:53:18.053Z,0.00
2019-06-23T00:54:18.107Z,0.00
2019-06-23T00:56:11.112Z,0.00
2019-06-23T00:57:11.178Z,0.00
2019-06-23T00:59:04.189Z,0.00
2019-06-23T01:00:04.262Z,0.00
2019-06-23T01:01:57.248Z,0.00
2019-06-23T01:02:57.414Z,0.00
2019-06-23T01:04:50.300Z,0.00
2019-06-23T01:05:50.345Z,0.00
2019-06-23T01:07:43.356Z,0.00
2019-06-23T01:08:43.398Z,0.00
2019-06-23T01:10:36.409Z,0.00
2019-06-23T01:11:36.463Z,0.00
2019-06-23T01:13:29.447Z,0.00
2019-06-23T01:14:29.509Z,0.00
2019-06-23T01:16:22.517Z,0.00
2019-06-23T01:17:22.565Z,0.00
2019-06-23T01:19:15.667Z,0.00
2019-06-23T01:20:15.638Z,0.00
2019-06-23T01:22:08.613Z,0.00
2019-06-23T01:23:08.671Z,0.00
2019-06-23T01:25:01.776Z,0.00
2019-06-23T01:26:01.727Z,0.00
2019-06-23T01:27:54.729Z,0.00
2019-06-23T01:28:54.782Z,0.00
2019-06-23T01:30:47.794Z,0.00
2019-06-23T01:31:47.834Z,0.00
2019-06-23T01:33:40.830Z,0.00
2019-06-23T01:34:40.904Z,0.00
2019-06-23T01:36:33.919Z,0.00
2019-06-23T01:37:33.964Z,0.00
2019-06-23T01:39:27.001Z,0.00
2019-06-23T01:40:27.018Z,0.00
2019-06-23T01:42:20.126Z,0.00
2019-06-23T01:43:20.153Z,0.00
2019-06-23T01:45:13.168Z,0.00
2019-06-23T01:46:13.199Z,0.00
2019-06-23T01:48:06.219Z,0.00
2019-06-23T01:49:06.312Z,0.00
2019-06-23T01:50:59.299Z,0.00
2019-06-23T01:51:59.334Z,0.00
2019-06-23T01:53:52.338Z,0.00
2019-06-23T01:54:52.434Z,0.00
2019-06-23T01:56:45.415Z,0.00
2019-06-23T01:57:45.453Z,0.00
2019-06-23T01:59:38.468Z,0.00
2019-06-23T02:00:38.534Z,0.00
2019-06-23T02:02:31.503Z,0.00
2019-06-23T02:03:31.573Z,0.00
2019-06-23T02:05:24.584Z,0.00
2019-06-23T02:06:24.633Z,0.00
2019-06-23T02:08:17.624Z,0.00
2019-06-23T02:09:17.686Z,0.00
2019-06-23T02:11:11.195Z,0.00
2019-06-23T02:12:11.242Z,0.00
2019-06-23T02:14:04.266Z,0.00
2019-06-23T02:15:04.303Z,0.00
2019-06-23T02:16:57.287Z,0.00
2019-06-23T02:17:57.351Z,0.00
2019-06-23T02:19:50.363Z,0.00
2019-06-23T02:20:50.410Z,0.00
2019-06-23T02:22:43.399Z,0.00
2019-06-23T02:23:43.462Z,0.00
2019-06-23T02:25:36.469Z,0.00
2019-06-23T02:26:36.513Z,0.00
2019-06-23T02:28:29.505Z,0.00
2019-06-23T02:29:29.567Z,0.00
2019-06-23T02:31:22.576Z,0.00
2019-06-23T02:32:22.621Z,0.00
2019-06-23T02:34:15.612Z,0.00
2019-06-23T02:35:15.674Z,0.00
2019-06-23T02:37:08.752Z,0.00
2019-06-23T02:38:08.733Z,0.00
2019-06-23T02:40:01.796Z,0.00
2019-06-23T02:41:01.786Z,0.00
2019-06-23T02:42:54.784Z,0.00
2019-06-23T02:43:54.870Z,0.00
2019-06-23T02:45:47.872Z,0.00
2019-06-23T02:46:47.913Z,0.00
2019-06-23T02:48:40.907Z,0.00
2019-06-23T02:49:40.957Z,0.00
2019-06-23T02:51:33.964Z,0.00
2019-06-23T02:52:34.024Z,0.00
2019-06-23T02:54:27.044Z,0.00
2019-06-23T02:55:27.065Z,0.00
2019-06-23T02:57:20.070Z,0.00
2019-06-23T02:58:20.137Z,0.00
2019-06-23T03:00:13.157Z,5.63
2019-06-23T03:01:13.207Z,5.63
2019-06-23T03:03:06.215Z,5.63
2019-06-23T03:04:06.257Z,5.63
2019-06-23T03:05:59.261Z,5.63
2019-06-23T03:06:59.323Z,5.63
2019-06-23T03:08:52.306Z,5.63
2019-06-23T03:09:52.364Z,11.25
2019-06-23T03:11:45.894Z,11.25
2019-06-23T03:12:45.923Z,11.25
2019-06-23T03:14:38.929Z,11.25
2019-06-23T03:15:38.980Z,11.25
2019-06-23T03:17:31.992Z,16.88
2019-06-23T03:18:32.040Z,16.88
2019-06-23T03:20:27.384Z,16.88
2019-06-23T03:21:25.096Z,22.50
2019-06-23T03:23:18.098Z,22.50
2019-06-23T03:24:18.168Z,22.50
2019-06-23T03:26:11.172Z,28.13
2019-06-23T03:27:11.207Z,28.13
2019-06-23T03:29:04.207Z,28.13
2019-06-23T03:30:04.297Z,33.75
2019-06-23T03:31:57.272Z,33.75
2019-06-23T03:32:57.321Z,39.38
2019-06-23T03:34:50.333Z,39.38
2019-06-23T03:35:50.395Z,39.38
2019-06-23T03:37:43.393Z,45.00
2019-06-23T03:38:43.445Z,45.00
2019-06-23T03:40:36.445Z,50.63
2019-06-23T03:41:36.494Z,50.63
2019-06-23T03:43:29.506Z,56.25
2019-06-23T03:44:29.553Z,56.25
2019-06-23T03:46:22.576Z,61.88
2019-06-23T03:47:22.609Z,61.88
2019-06-23T03:49:15.613Z,67.50
2019-06-23T03:50:15.666Z,67.50
2019-06-23T03:52:08.684Z,73.13
2019-06-23T03:53:08.723Z,73.13
2019-06-23T03:55:01.733Z,78.75
2019-06-23T03:56:01.780Z,78.75
2019-06-23T03:57:54.856Z,84.38
2019-06-23T03:58:54.838Z,90.00
2019-06-23T04:00:47.843Z,90.00
2019-06-23T04:01:47.896Z,95.63
2019-06-23T04:03:40.897Z,101.25
2019-06-23T04:04:40.987Z,101.25
2019-06-23T04:06:33.947Z,106.88
2019-06-23T04:07:34.004Z,106.88
2019-06-23T04:09:27.003Z,112.50
2019-06-23T04:10:27.061Z,112.50
2019-06-23T04:12:20.078Z,118.13
2019-06-23T04:13:20.118Z,123.75
2019-06-23T04:15:13.105Z,123.75
2019-06-23T04:16:13.162Z,129.38
2019-06-23T04:18:06.169Z,135.00
2019-06-23T04:19:06.213Z,135.00
2019-06-23T04:20:59.219Z,140.63
2019-06-23T04:21:59.262Z,146.25
2019-06-23T04:23:52.285Z,151.88
2019-06-23T04:24:52.312Z,151.88
2019-06-23T04:26:45.304Z,157.50
2019-06-23T04:27:45.366Z,163.13
2019-06-23T04:29:38.387Z,168.75
2019-06-23T04:30:38.421Z,168.75
2019-06-23T04:32:31.426Z,180.00
2019-06-23T04:33:31.470Z,180.00
2019-06-23T04:35:24.481Z,185.63
2019-06-23T04:36:24.547Z,191.25
2019-06-23T04:38:17.540Z,196.88
2019-06-23T04:39:17.577Z,196.88
2019-06-23T04:41:10.580Z,208.13
2019-06-23T04:42:10.643Z,208.13
2019-06-23T04:44:03.663Z,219.38
2019-06-23T04:45:03.697Z,219.38
2019-06-23T04:46:56.678Z,219.38
2019-06-23T04:47:56.749Z,225.00
2019-06-23T04:49:49.770Z,225.00
2019-06-23T04:50:49.837Z,225.00
2019-06-23T04:52:42.805Z,230.63
2019-06-23T04:53:42.866Z,236.25
2019-06-23T04:55:35.883Z,241.88
2019-06-23T04:56:35.930Z,241.88
2019-06-23T04:58:28.922Z,247.50
2019-06-23T04:59:28.983Z,247.50
2019-06-23T05:01:22.053Z,253.13
2019-06-23T05:02:22.045Z,253.13
2019-06-23T05:04:15.049Z,264.38
2019-06-23T05:05:15.094Z,264.38
2019-06-23T05:07:08.104Z,270.00
2019-06-23T05:08:08.155Z,275.63
2019-06-23T05:10:01.149Z,275.63
2019-06-23T05:11:01.213Z,281.25
2019-06-23T05:12:54.243Z,281.25
2019-06-23T05:13:54.285Z,286.88
2019-06-23T05:15:47.284Z,292.50
2019-06-23T05:16:47.336Z,292.50
2019-06-23T05:18:40.349Z,303.75
2019-06-23T05:19:40.397Z,298.13
2019-06-23T05:21:33.380Z,303.75
2019-06-23T05:22:33.458Z,309.38
2019-06-23T05:24:26.495Z,309.38
2019-06-23T05:25:26.499Z,309.38
2019-06-23T05:27:19.491Z,315.00
2019-06-23T05:28:19.553Z,315.00
2019-06-23T05:30:12.592Z,320.63
2019-06-23T05:31:12.654Z,320.63
2019-06-23T05:33:05.628Z,326.25
2019-06-23T05:34:05.687Z,326.25
2019-06-23T05:35:58.697Z,331.88
2019-06-23T05:36:58.744Z,331.88
2019-06-23T05:38:51.766Z,337.50
2019-06-23T05:39:51.802Z,337.50
2019-06-23T05:41:44.803Z,343.13
2019-06-23T05:42:44.848Z,354.38
2019-06-23T05:44:38.379Z,360.00
2019-06-23T05:45:38.409Z,360.00
2019-06-23T05:47:31.448Z,365.63
2019-06-23T05:48:31.506Z,365.63
2019-06-23T05:50:24.524Z,371.25
2019-06-23T05:51:24.566Z,376.88
2019-06-23T05:53:17.574Z,382.50
2019-06-23T05:54:17.640Z,388.13
2019-06-23T05:56:10.637Z,399.38
2019-06-23T05:57:10.678Z,399.38
2019-06-23T05:59:03.670Z,410.63
2019-06-23T06:00:03.733Z,410.63
2019-06-23T06:01:56.760Z,427.50
2019-06-23T06:02:56.789Z,433.13
2019-06-23T06:04:49.774Z,444.38
2019-06-23T06:05:49.841Z,455.63
2019-06-23T06:07:42.853Z,466.88
2019-06-23T06:08:42.899Z,472.50
2019-06-23T06:10:35.883Z,495.00
2019-06-23T06:11:35.951Z,500.63
2019-06-23T06:13:28.991Z,528.75
2019-06-23T06:14:29.001Z,545.63
2019-06-23T06:16:21.997Z,596.25
2019-06-23T06:17:22.060Z,630.00
2019-06-23T06:19:15.067Z,714.38
2019-06-23T06:20:15.169Z,1355.63
2019-06-23T06:22:08.112Z,2655.00
2019-06-23T06:23:08.178Z,2677.50
2019-06-23T06:25:01.188Z,2756.25
2019-06-23T06:26:01.230Z,2812.50
2019-06-23T06:27:54.258Z,2756.25
2019-06-23T06:28:54.332Z,2756.25
2019-06-23T06:30:47.352Z,2970.00
2019-06-23T06:31:47.393Z,2891.25
2019-06-23T06:33:40.412Z,2970.00
2019-06-23T06:34:40.462Z,2964.38
2019-06-23T06:36:33.475Z,2902.50
2019-06-23T06:37:33.536Z,2964.38
2019-06-23T06:39:26.563Z,2941.88
2019-06-23T06:40:26.610Z,2874.38
2019-06-23T06:42:20.273Z,3060.00
2019-06-23T06:43:20.203Z,3150.00
2019-06-23T06:45:13.210Z,3054.38
2019-06-23T06:46:13.280Z,3076.88
2019-06-23T06:48:06.313Z,2981.25
2019-06-23T06:49:06.511Z,3060.00
2019-06-23T06:50:59.407Z,3138.75
2019-06-23T06:51:59.454Z,3206.25
2019-06-23T06:53:52.484Z,3290.63
2019-06-23T06:54:52.537Z,3375.00
2019-06-23T06:56:45.546Z,3391.88
2019-06-23T06:57:45.675Z,3375.00
2019-06-23T06:59:38.651Z,3436.88
2019-06-23T07:00:38.704Z,3358.13
2019-06-23T07:02:31.731Z,3645.00
2019-06-23T07:03:31.791Z,3622.50
2019-06-23T07:05:24.825Z,3425.63
2019-06-23T07:06:24.884Z,3335.63
2019-06-23T07:08:17.916Z,3414.38
2019-06-23T07:09:17.977Z,3594.38
2019-06-23T07:11:10.991Z,3718.13
2019-06-23T07:12:11.064Z,3763.13
2019-06-23T07:14:04.101Z,3746.25
2019-06-23T07:15:04.163Z,3746.25
2019-06-23T07:16:57.200Z,3875.63
2019-06-23T07:17:57.245Z,3858.75
2019-06-23T07:19:50.283Z,3813.75
2019-06-23T07:20:50.337Z,3684.38
2019-06-23T07:22:43.415Z,3560.63
2019-06-23T07:23:43.450Z,3684.38
2019-06-23T07:25:36.468Z,3903.75
2019-06-23T07:26:36.552Z,4005.00
2019-06-23T07:28:29.582Z,3954.38
2019-06-23T07:29:29.639Z,3830.63
2019-06-23T07:31:22.656Z,3796.88
2019-06-23T07:32:22.735Z,3465.00
2019-06-23T07:34:15.766Z,4027.50
2019-06-23T07:35:15.832Z,3993.75
2019-06-23T07:37:08.851Z,3915.00
2019-06-23T07:38:08.927Z,3943.13
2019-06-23T07:40:02.817Z,4066.88
2019-06-23T07:41:02.878Z,4117.50
2019-06-23T07:42:56.395Z,4106.25
2019-06-23T07:43:56.504Z,4230.00
2019-06-23T07:45:49.513Z,4117.50
2019-06-23T07:46:49.611Z,4027.50
2019-06-23T07:48:42.595Z,4168.13
2019-06-23T07:49:42.672Z,4111.88
2019-06-23T07:51:35.710Z,4235.63
2019-06-23T07:52:35.769Z,4314.38
2019-06-23T07:54:28.808Z,4387.50
2019-06-23T07:55:28.867Z,4314.38
2019-06-23T07:57:21.884Z,4263.75
2019-06-23T07:58:21.966Z,4106.25
2019-06-23T08:00:15.016Z,4145.63
2019-06-23T08:01:15.071Z,3948.75
2019-06-23T08:03:08.093Z,3881.25
2019-06-23T08:04:08.192Z,4044.38
2019-06-23T08:06:01.210Z,4252.50
2019-06-23T08:07:01.272Z,4179.38
2019-06-23T08:08:54.327Z,4095.00
2019-06-23T08:09:54.369Z,3870.00
2019-06-23T08:11:47.391Z,3892.50
2019-06-23T08:12:47.467Z,4162.50
2019-06-23T08:14:40.518Z,4353.75
2019-06-23T08:15:40.654Z,4201.88
2019-06-23T08:17:33.615Z,4325.63
2019-06-23T08:18:33.670Z,4455.00
2019-06-23T08:20:26.743Z,4404.38
2019-06-23T08:21:26.772Z,4477.50
2019-06-23T08:23:19.793Z,4578.75
2019-06-23T08:24:19.873Z,4561.88
2019-06-23T08:26:12.909Z,4432.50
2019-06-23T08:27:12.975Z,4455.00
2019-06-23T08:29:05.998Z,4612.50
2019-06-23T08:30:06.090Z,4646.25
2019-06-23T08:31:59.169Z,3436.88
2019-06-23T08:32:59.184Z,4629.38
2019-06-23T08:34:52.229Z,4556.25
2019-06-23T08:35:52.293Z,4303.13
2019-06-23T08:38:31.143Z,4511.25
2019-06-23T08:39:23.584Z,4528.13
2019-06-23T08:41:16.627Z,4635.00
2019-06-23T08:42:16.698Z,4657.50
2019-06-23T08:44:09.715Z,4668.75
2019-06-23T08:45:09.799Z,4629.38
2019-06-23T08:47:02.847Z,4505.63
2019-06-23T08:48:02.907Z,4736.25
2019-06-23T08:49:55.927Z,4601.25
2019-06-23T08:50:56.039Z,4623.75
2019-06-23T08:52:49.063Z,4730.63
2019-06-23T08:53:49.124Z,4741.88
2019-06-23T08:55:42.147Z,4511.25
2019-06-23T08:56:42.269Z,4545.00
2019-06-23T08:58:35.274Z,4865.63
2019-06-23T08:59:35.330Z,4944.38
2019-06-23T09:01:28.368Z,4938.75
2019-06-23T09:02:28.438Z,4961.25
2019-06-23T09:04:21.480Z,4798.13
2019-06-23T09:05:21.544Z,4663.13
2019-06-23T09:07:14.592Z,4916.25
2019-06-23T09:08:30.470Z,4961.25
2019-06-23T09:10:07.769Z,4685.63
2019-06-23T09:11:07.851Z,4770.00
2019-06-23T09:13:00.831Z,4910.63
2019-06-23T09:14:00.930Z,4888.13
2019-06-23T09:15:53.955Z,4837.50
2019-06-23T09:16:54.013Z,4938.75
2019-06-23T09:18:47.042Z,4708.13
2019-06-23T09:19:47.119Z,4725.00
2019-06-23T09:21:40.167Z,4640.63
2019-06-23T09:22:40.235Z,4539.38
2019-06-23T09:24:33.262Z,4511.25
2019-06-23T09:25:33.341Z,4646.25
2019-06-23T09:27:26.387Z,4854.38
2019-06-23T09:28:26.446Z,4916.25
2019-06-23T09:30:19.469Z,4848.75
2019-06-23T09:31:19.579Z,4921.88
2019-06-23T09:33:12.603Z,4297.50
2019-06-23T09:34:12.664Z,2210.63
2019-06-23T09:36:05.745Z,691.88
2019-06-23T09:37:05.769Z,652.50
2019-06-23T09:38:59.311Z,618.75
2019-06-23T09:39:59.436Z,607.50
2019-06-23T09:41:52.407Z,596.25
2019-06-23T09:42:52.483Z,590.63
2019-06-23T09:44:45.530Z,585.00
2019-06-23T09:45:45.577Z,585.00
2019-06-23T09:47:38.588Z,573.75
2019-06-23T09:48:38.712Z,568.13
2019-06-23T09:50:31.700Z,556.88
2019-06-23T09:51:31.768Z,556.88
2019-06-23T09:53:24.816Z,551.25
2019-06-23T09:54:24.846Z,551.25
2019-06-23T09:56:17.874Z,551.25
2019-06-23T09:57:17.927Z,551.25
2019-06-23T09:59:10.968Z,551.25
2019-06-23T10:00:11.050Z,545.63
2019-06-23T10:02:04.080Z,534.38
2019-06-23T10:03:04.132Z,528.75
2019-06-23T10:04:57.158Z,523.13
2019-06-23T10:05:57.213Z,517.50
2019-06-23T10:07:50.254Z,511.88
2019-06-23T10:09:03.259Z,511.88
2019-06-23T10:10:43.328Z,506.25
2019-06-23T10:11:43.377Z,500.63
2019-06-23T10:15:22.618Z,489.38
2019-06-23T10:16:22.629Z,483.75
2019-06-23T10:18:41.218Z,483.75
2019-06-23T10:21:46.174Z,478.13
2019-06-23T10:22:45.015Z,472.50
2019-06-23T10:25:45.143Z,455.63
2019-06-23T10:26:26.103Z,450.00
2019-06-23T10:28:19.123Z,455.63
2019-06-23T10:29:19.178Z,450.00
2019-06-23T10:31:12.187Z,450.00
2019-06-23T10:32:12.254Z,444.38
2019-06-23T10:34:05.333Z,444.38
2019-06-23T10:35:05.331Z,444.38
2019-06-23T10:36:58.860Z,438.75
2019-06-23T10:37:58.935Z,438.75
2019-06-23T10:39:52.021Z,438.75
2019-06-23T10:40:52.024Z,433.13
2019-06-23T10:42:45.046Z,433.13
2019-06-23T10:43:45.134Z,427.50
2019-06-23T10:45:38.122Z,421.88
2019-06-23T10:46:38.191Z,421.88
2019-06-23T10:48:31.186Z,416.25
2019-06-23T10:49:31.255Z,410.63
2019-06-23T10:51:24.298Z,405.00
2019-06-23T10:52:24.348Z,405.00
2019-06-23T10:54:17.386Z,399.38
2019-06-23T10:55:17.429Z,399.38
2019-06-23T10:57:10.452Z,399.38
2019-06-23T10:58:10.509Z,405.00
2019-06-23T11:00:03.751Z,399.38
2019-06-23T11:02:43.706Z,388.13
2019-06-23T11:03:43.728Z,382.50
2019-06-23T11:05:40.201Z,371.25
2019-06-23T11:06:36.803Z,371.25
2019-06-23T11:08:29.825Z,371.25
2019-06-23T11:09:35.742Z,365.63
2019-06-23T11:11:23.479Z,371.25
2019-06-23T11:12:23.449Z,371.25
2019-06-23T11:14:25.043Z,365.63
2019-06-23T11:15:16.612Z,365.63
2019-06-23T11:17:09.642Z,365.63
2019-06-23T11:18:09.688Z,371.25
2019-06-23T11:20:02.742Z,376.88
2019-06-23T11:21:02.770Z,376.88
2019-06-23T11:22:56.283Z,388.13
2019-06-23T11:23:56.348Z,405.00
2019-06-23T11:25:49.397Z,388.13
2019-06-23T11:26:49.447Z,371.25
2019-06-23T11:28:42.459Z,354.38
2019-06-23T11:29:42.516Z,354.38
2019-06-23T11:31:35.566Z,354.38
2019-06-23T11:32:36.553Z,354.38
2019-06-23T11:34:28.653Z,354.38
2019-06-23T11:35:28.697Z,348.75
2019-06-23T11:37:21.696Z,348.75
2019-06-23T11:38:21.819Z,354.38
2019-06-23T11:40:14.896Z,354.38
2019-06-23T11:41:15.000Z,365.63
2019-06-23T11:43:07.961Z,399.38
2019-06-23T11:44:08.037Z,410.63
2019-06-23T11:46:01.063Z,421.88
2019-06-23T11:47:01.103Z,433.13
2019-06-23T11:48:54.120Z,483.75
2019-06-23T11:49:54.199Z,478.13
2019-06-23T11:51:47.222Z,416.25
2019-06-23T11:52:47.263Z,421.88
2019-06-23T11:54:40.382Z,421.88
2019-06-23T11:55:40.447Z,421.88
2019-06-23T11:57:33.473Z,393.75
2019-06-23T11:58:33.513Z,376.88
2019-06-23T12:00:26.534Z,360.00
2019-06-23T12:01:26.593Z,354.38
2019-06-23T12:03:19.640Z,393.75
2019-06-23T12:04:19.671Z,405.00
2019-06-23T12:06:12.686Z,376.88
2019-06-23T12:07:12.755Z,360.00
2019-06-23T12:09:05.775Z,326.25
2019-06-23T12:10:08.075Z,326.25
2019-06-23T12:11:58.873Z,326.25
2019-06-23T12:12:58.899Z,331.88
2019-06-23T12:14:51.910Z,326.25
2019-06-23T12:15:51.977Z,320.63
2019-06-23T12:17:45.021Z,320.63
2019-06-23T12:18:45.055Z,309.38
2019-06-23T12:20:38.054Z,270.00
2019-06-23T12:21:38.119Z,303.75
2019-06-23T12:23:31.683Z,309.38
2019-06-23T12:24:31.733Z,303.75
2019-06-23T12:26:24.725Z,298.13
2019-06-23T12:27:24.793Z,303.75
2019-06-23T12:29:17.833Z,292.50
2019-06-23T12:30:17.871Z,286.88
2019-06-23T12:32:10.921Z,281.25
2019-06-23T12:33:10.949Z,275.63
2019-06-23T12:35:03.990Z,275.63
2019-06-23T12:36:04.053Z,275.63
2019-06-23T12:37:57.056Z,275.63
2019-06-23T12:38:57.109Z,275.63
2019-06-23T12:40:50.188Z,275.63
2019-06-23T12:41:50.176Z,275.63
2019-06-23T12:43:43.196Z,275.63
2019-06-23T12:44:43.273Z,281.25
2019-06-23T12:46:36.298Z,275.63
2019-06-23T12:47:36.363Z,275.63
2019-06-23T12:49:29.345Z,275.63
2019-06-23T12:50:29.411Z,270.00
2019-06-23T12:56:50.312Z,247.50
2019-06-23T12:57:50.380Z,247.50
2019-06-23T13:00:37.896Z,253.13
2019-06-23T13:01:37.979Z,253.13
2019-06-23T13:03:30.988Z,253.13
2019-06-23T13:04:30.978Z,258.75
2019-06-23T13:06:36.711Z,264.38
2019-06-23T13:07:36.730Z,264.38
2019-06-23T13:09:29.742Z,264.38
2019-06-23T13:10:40.019Z,258.75
2019-06-23T13:12:22.810Z,258.75
2019-06-23T13:13:22.882Z,253.13
2019-06-23T13:15:15.905Z,258.75
2019-06-23T13:16:15.958Z,264.38
2019-06-23T13:18:08.981Z,258.75
2019-06-23T13:19:09.027Z,258.75
2019-06-23T13:21:02.116Z,258.75
2019-06-23T13:22:02.099Z,253.13
2019-06-23T13:23:55.101Z,253.13
2019-06-23T13:24:55.174Z,253.13
2019-06-23T13:26:48.194Z,253.13
2019-06-23T13:27:48.253Z,253.13
2019-06-23T13:29:41.243Z,241.88
2019-06-23T13:30:41.341Z,241.88
2019-06-23T13:32:34.336Z,230.63
2019-06-23T13:33:34.389Z,236.25
2019-06-23T13:35:27.431Z,241.88
2019-06-23T13:36:27.466Z,241.88
2019-06-23T13:38:20.493Z,253.13
2019-06-23T13:39:20.544Z,253.13
2019-06-23T13:41:13.571Z,253.13
2019-06-23T13:42:13.617Z,253.13
2019-06-23T13:44:06.631Z,253.13
2019-06-23T13:45:06.692Z,253.13
2019-06-23T13:46:59.719Z,247.50
2019-06-23T13:47:59.773Z,247.50
2019-06-23T13:49:52.758Z,253.13
2019-06-23T13:50:52.829Z,253.13
2019-06-23T13:52:45.856Z,253.13
2019-06-23T13:53:48.184Z,258.75
2019-06-23T13:55:38.913Z,258.75
2019-06-23T13:56:38.971Z,258.75
2019-06-23T13:58:31.978Z,258.75
2019-06-23T13:59:32.078Z,258.75
2019-06-23T14:01:25.094Z,258.75
2019-06-23T14:02:25.143Z,258.75
2019-06-23T14:04:18.192Z,258.75
2019-06-23T14:05:18.208Z,253.13
2019-06-23T14:07:11.843Z,247.50
2019-06-23T14:08:11.821Z,247.50
2019-06-23T14:10:04.825Z,241.88
2019-06-23T14:11:12.942Z,241.88
2019-06-23T14:12:57.883Z,236.25
2019-06-23T14:13:57.953Z,236.25
2019-06-23T14:15:50.977Z,236.25
2019-06-23T14:16:51.034Z,236.25
2019-06-23T14:18:44.023Z,230.63
2019-06-23T14:19:44.100Z,230.63
2019-06-23T14:21:37.224Z,230.63
2019-06-23T14:22:37.181Z,230.63
2019-06-23T14:24:30.192Z,230.63
2019-06-23T14:25:30.263Z,230.63
2019-06-23T14:27:23.293Z,230.63
2019-06-23T14:28:23.344Z,230.63
2019-06-23T14:30:16.346Z,225.00
2019-06-23T14:31:16.419Z,225.00
2019-06-23T14:33:09.441Z,219.38
2019-06-23T14:34:09.513Z,219.38
2019-06-23T14:36:02.510Z,219.38
2019-06-23T14:37:02.637Z,213.75
2019-06-23T14:38:55.598Z,219.38
2019-06-23T14:39:55.649Z,213.75
2019-06-23T14:41:48.689Z,213.75
2019-06-23T14:42:48.726Z,213.75
2019-06-23T14:44:41.754Z,213.75
2019-06-23T14:45:41.797Z,213.75
2019-06-23T14:47:34.824Z,213.75
2019-06-23T14:48:34.891Z,208.13
2019-06-23T14:50:27.917Z,208.13
2019-06-23T14:51:27.988Z,208.13
2019-06-23T14:53:20.996Z,208.13
2019-06-23T14:54:21.038Z,208.13
2019-06-23T14:56:14.070Z,208.13
2019-06-23T14:57:14.111Z,208.13
2019-06-23T14:59:07.127Z,208.13
2019-06-23T15:00:07.204Z,208.13
2019-06-23T15:02:00.255Z,202.50
2019-06-23T15:03:00.299Z,202.50
2019-06-23T15:04:53.322Z,202.50
2019-06-23T15:05:53.370Z,202.50
2019-06-23T15:07:46.438Z,202.50
2019-06-23T15:08:46.439Z,202.50
2019-06-23T15:10:39.450Z,202.50
2019-06-23T15:11:44.731Z,202.50
2019-06-23T15:13:32.533Z,202.50
2019-06-23T15:14:32.589Z,202.50
2019-06-23T15:16:25.588Z,202.50
2019-06-23T15:17:25.675Z,202.50
2019-06-23T15:19:18.675Z,202.50
2019-06-23T15:20:32.080Z,202.50
2019-06-23T15:22:11.747Z,202.50
2019-06-23T15:23:11.841Z,202.50
2019-06-23T15:25:04.801Z,202.50
2019-06-23T15:26:04.894Z,202.50
2019-06-23T15:27:57.892Z,202.50
2019-06-23T15:28:57.945Z,202.50
2019-06-23T15:34:21.645Z,202.50
2019-06-23T15:35:21.662Z,202.50
2019-06-23T15:37:14.757Z,202.50
2019-06-23T15:38:14.732Z,202.50
2019-06-23T15:40:07.791Z,202.50
2019-06-23T15:41:07.798Z,202.50
2019-06-23T15:43:00.849Z,202.50
2019-06-23T15:44:00.916Z,202.50
2019-06-23T15:45:53.881Z,202.50
2019-06-23T15:46:53.975Z,202.50
2019-06-23T15:48:46.992Z,202.50
2019-06-23T15:49:47.055Z,202.50
2019-06-23T15:51:43.327Z,202.50
2019-06-23T15:55:31.214Z,196.88
2019-06-23T15:56:23.583Z,196.88
2019-06-23T15:58:16.633Z,191.25
2019-06-23T15:59:16.672Z,191.25
2019-06-23T16:01:09.679Z,185.63
2019-06-23T16:02:09.740Z,185.63
2019-06-23T16:04:02.910Z,185.63
2019-06-23T16:05:02.815Z,185.63
2019-06-23T16:06:55.892Z,185.63
2019-06-23T16:07:55.935Z,185.63
2019-06-23T16:09:48.980Z,185.63
2019-06-23T16:10:49.032Z,185.63
2019-06-23T16:12:42.033Z,185.63
2019-06-23T16:13:42.070Z,185.63
2019-06-23T16:15:35.065Z,185.63
2019-06-23T16:16:35.272Z,180.00
2019-06-23T16:18:28.691Z,180.00
2019-06-23T16:19:28.723Z,180.00
2019-06-23T16:23:03.300Z,180.00
2019-06-23T16:24:03.353Z,180.00
2019-06-23T16:25:56.379Z,180.00
2019-06-23T16:26:56.443Z,180.00
2019-06-23T16:28:49.490Z,180.00
2019-06-23T16:29:49.502Z,180.00
2019-06-23T16:31:42.543Z,174.38
2019-06-23T16:32:42.628Z,174.38
2019-06-23T16:34:35.657Z,180.00
2019-06-23T16:35:35.675Z,174.38
2019-06-23T16:37:28.704Z,168.75
2019-06-23T16:38:30.817Z,168.75
2019-06-23T16:40:21.784Z,168.75
2019-06-23T16:41:21.817Z,163.13
2019-06-23T16:43:14.839Z,168.75
2019-06-23T16:44:14.886Z,174.38
2019-06-23T16:46:07.933Z,168.75
2019-06-23T16:47:07.976Z,168.75
2019-06-23T16:49:00.997Z,168.75
2019-06-23T16:50:01.042Z,168.75
2019-06-23T16:51:54.048Z,163.13
2019-06-23T16:52:54.122Z,163.13
2019-06-23T16:54:47.166Z,163.13
2019-06-23T16:55:47.208Z,163.13
2019-06-23T16:57:40.222Z,157.50
2019-06-23T16:58:40.292Z,163.13
2019-06-23T17:00:33.329Z,163.13
2019-06-23T17:01:36.955Z,163.13
2019-06-23T17:03:26.377Z,163.13
2019-06-23T17:04:26.466Z,163.13
2019-06-23T17:06:19.507Z,163.13
2019-06-23T17:07:19.548Z,157.50
2019-06-23T17:09:12.573Z,163.13
2019-06-23T17:10:12.630Z,168.75
2019-06-23T17:12:05.667Z,174.38
2019-06-23T17:13:05.712Z,180.00
2019-06-23T17:14:58.703Z,185.63
2019-06-23T17:15:58.777Z,191.25
2019-06-23T17:17:51.799Z,191.25
2019-06-23T17:18:51.846Z,191.25
2019-06-23T17:20:44.890Z,191.25
2019-06-23T17:21:44.960Z,191.25
2019-06-23T17:23:37.985Z,185.63
2019-06-23T17:24:38.029Z,185.63
2019-06-23T17:26:31.051Z,185.63
2019-06-23T17:27:31.113Z,185.63
2019-06-23T17:29:24.112Z,180.00
2019-06-23T17:30:24.196Z,174.38
2019-06-23T17:32:17.228Z,163.13
2019-06-23T17:33:17.272Z,163.13
2019-06-23T17:35:10.283Z,151.88
2019-06-23T17:36:10.343Z,151.88
2019-06-23T17:38:03.372Z,146.25
2019-06-23T17:39:03.412Z,146.25
2019-06-23T17:40:56.446Z,146.25
2019-06-23T17:41:56.482Z,140.63
2019-06-23T17:43:49.509Z,140.63
2019-06-23T17:44:49.552Z,140.63
2019-06-23T17:46:42.551Z,140.63
2019-06-23T17:47:42.627Z,140.63
2019-06-23T17:49:35.642Z,140.63
2019-06-23T17:50:35.709Z,140.63
2019-06-23T17:52:28.827Z,140.63
2019-06-23T17:53:28.819Z,140.63
2019-06-23T17:55:21.866Z,140.63
2019-06-23T17:56:21.875Z,140.63
2019-06-23T17:58:14.900Z,146.25
2019-06-23T17:59:14.928Z,157.50
2019-06-23T18:01:07.946Z,151.88
2019-06-23T18:02:08.017Z,163.13
2019-06-23T18:04:01.069Z,168.75
2019-06-23T18:05:01.141Z,163.13
2019-06-23T18:06:54.120Z,157.50
2019-06-23T18:07:54.201Z,157.50
2019-06-23T18:09:47.224Z,157.50
2019-06-23T18:10:47.254Z,157.50
2019-06-23T18:12:40.277Z,146.25
2019-06-23T18:13:40.339Z,140.63
2019-06-23T18:15:33.369Z,140.63
2019-06-23T18:16:33.410Z,140.63
2019-06-23T18:18:26.474Z,135.00
2019-06-23T18:19:26.532Z,135.00
2019-06-23T18:21:19.540Z,129.38
2019-06-23T18:22:19.594Z,129.38
2019-06-23T18:24:12.614Z,123.75
2019-06-23T18:25:12.739Z,123.75
2019-06-23T18:27:05.684Z,118.13